Time;durP1;ratioP1;P1;durP2;ratioP2;P2;SDS_P1;SDS_P2;PMS_P1;PMS_P2;Temp;Humidity;BMP_temperature;BMP_pressure;BME280_temperature;BME280_humidity;BME280_pressure;Samples;Min_cycle;Max_cycle;Signal;HPM_P1;HPM_P2
2022/11/30 00:01:25;;;;;;;;;;;;;;;;;;5061826;28;22136;-79
2022/11/30 00:03:51;;;;;;;;;;;;;;;;;;5065756;28;19915;-80
2022/11/30 00:06:22;;;;;;;;;;;;;;;;;;5056597;28;19994;-80
2022/11/30 00:08:47;;;;;;;;;;;;;;;;;;5060492;28;20401;-80
2022/11/30 00:11:13;;;;;;;;;;;;;;;;;;5058660;28;19908;-80
2022/11/30 00:13:39;;;;;;;;;;;;;;;;;;5072328;28;20366;-77
2022/11/30 00:16:05;;;;;;;;;;;;;;;;;;5069662;28;19957;-77
2022/11/30 00:18:31;;;;;;;;;;;;;;;;;;5054993;28;19912;-78
2022/11/30 00:20:57;;;;;;;;;;;;;;;;;;5060404;28;19908;-78
2022/11/30 00:23:23;;;;;;;;;;;;;;;;;;5057969;28;19908;-78
2022/11/30 00:25:48;;;;;;;;;;;;;;;;;;5049393;28;19943;-79
2022/11/30 00:28:14;;;;;;;;;;;;;;;;;;5054224;28;19919;-78
2022/11/30 00:30:40;;;;;;;;;;;;;;;;;;5062791;28;20371;-78
2022/11/30 00:33:06;;;;;;;;;;;;;;;;;;5066398;28;20262;-78
2022/11/30 00:35:32;;;;;;;;;;;;;;;;;;5066475;28;20356;-78
2022/11/30 00:37:58;;;;;;;;;;;;;;;;;;5066400;28;19919;-78
2022/11/30 00:40:23;;;;;;;;;;;;;;;;;;5056457;28;19913;-78
2022/11/30 00:42:49;;;;;;;;;;;;;;;;;;5065993;28;19916;-78
2022/11/30 00:45:15;;;;;;;;;;;;;;;;;;5070032;28;19915;-78
2022/11/30 00:47:41;;;;;;;;;;;;;;;;;;5068100;28;19970;-78
2022/11/30 00:50:07;;;;;;;;;;;;;;;;;;5027622;28;1102934;-80
2022/11/30 00:52:33;;;;;;;;;;;;;;;;;;5054517;28;19916;-78
2022/11/30 00:54:58;;;;;;;;;;;;;;;;;;5061934;28;19934;-78
2022/11/30 00:57:24;;;;;;;;;;;;;;;;;;5065803;28;20015;-78
2022/11/30 00:59:50;;;;;;;;;;;;;;;;;;5068465;28;19913;-78
2022/11/30 01:02:16;;;;;;;;;;;;;;;;;;5062842;28;20728;-78
2022/11/30 01:04:42;;;;;;;;;;;;;;;;;;5065371;28;19915;-79
2022/11/30 01:07:08;;;;;;;;;;;;;;;;;;5077369;28;20359;-80
2022/11/30 01:09:33;;;;;;;;;;;;;;;;;;5057486;28;20007;-79
2022/11/30 01:11:59;;;;;;;;;;;;;;;;;;5062625;28;19912;-79
2022/11/30 01:14:25;;;;;;;;;;;;;;;;;;5059369;28;19916;-80
2022/11/30 01:16:51;;;;;;;;;;;;;;;;;;5064416;28;19916;-79
2022/11/30 01:19:17;;;;;;;;;;;;;;;;;;5063294;28;19912;-80
2022/11/30 01:21:43;;;;;;;;;;;;;;;;;;5064485;28;19908;-80
2022/11/30 01:24:09;;;;;;;;;;;;;;;;;;5055101;28;19920;-79
2022/11/30 01:26:35;;;;;;;;;;;;;;;;;;5055197;28;20264;-80
2022/11/30 01:29:01;;;;;;;;;;;;;;;;;;5062919;28;19908;-79
2022/11/30 01:31:27;;;;;;;;;;;;;;;;;;5067897;28;19916;-79
2022/11/30 01:33:52;;;;;;;;;;;;;;;;;;5064729;28;20425;-79
2022/11/30 01:36:18;;;;;;;;;;;;;;;;;;5070406;28;19912;-79
2022/11/30 01:38:44;;;;;;;;;;;;;;;;;;5066557;28;20359;-79
2022/11/30 01:41:10;;;;;;;;;;;;;;;;;;5073171;28;19920;-79
2022/11/30 01:43:36;;;;;;;;;;;;;;;;;;5060106;28;20339;-79
2022/11/30 01:46:02;;;;;;;;;;;;;;;;;;5065524;28;20282;-79
2022/11/30 01:48:28;;;;;;;;;;;;;;;;;;5064449;28;19908;-79
2022/11/30 01:50:53;;;;;;;;;;;;;;;;;;5066886;28;19923;-79
2022/11/30 01:53:19;;;;;;;;;;;;;;;;;;5061813;28;19923;-79
2022/11/30 01:55:46;;;;;;;;;;;;;;;;;;5066853;28;19916;-79
2022/11/30 01:58:11;;;;;;;;;;;;;;;;;;5065320;28;19942;-79
2022/11/30 02:00:37;;;;;;;;;;;;;;;;;;5058144;28;20328;-79
2022/11/30 02:03:03;;;;;;;;;;;;;;;;;;5065372;28;19908;-79
2022/11/30 02:05:29;;;;;;;;;;;;;;;;;;5059305;28;19995;-79
2022/11/30 02:07:55;;;;;;;;;;;;;;;;;;5062422;28;20256;-79
2022/11/30 02:10:21;;;;;;;;;;;;;;;;;;5063292;28;19908;-79
2022/11/30 02:12:46;;;;;;;;;;;;;;;;;;5066498;28;19909;-79
2022/11/30 02:15:12;;;;;;;;;;;;;;;;;;5056460;28;20282;-79
2022/11/30 02:17:38;;;;;;;;;;;;;;;;;;5066191;28;19908;-79
2022/11/30 02:20:04;;;;;;;;;;;;;;;;;;5061721;28;20007;-79
2022/11/30 02:22:30;;;;;;;;;;;;;;;;;;5061619;28;19934;-79
2022/11/30 02:24:56;;;;;;;;;;;;;;;;;;5065127;28;19909;-79
2022/11/30 02:27:22;;;;;;;;;;;;;;;;;;5062230;28;20011;-79
2022/11/30 02:29:47;;;;;;;;;;;;;;;;;;5064089;28;19931;-79
2022/11/30 02:32:13;;;;;;;;;;;;;;;;;;5060540;28;19908;-80
2022/11/30 02:34:39;;;;;;;;;;;;;;;;;;5062562;28;19919;-79
2022/11/30 02:37:05;;;;;;;;;;;;;;;;;;5060952;28;19912;-78
2022/11/30 02:39:31;;;;;;;;;;;;;;;;;;5063901;28;19999;-79
2022/11/30 02:41:57;;;;;;;;;;;;;;;;;;5063906;28;19909;-79
2022/11/30 02:44:23;;;;;;;;;;;;;;;;;;5056220;28;20389;-79
2022/11/30 02:46:51;;;;;;;;;;;;;;;;;;5057275;28;19908;-79
2022/11/30 02:49:17;;;;;;;;;;;;;;;;;;5065605;28;19913;-79
2022/11/30 02:51:43;;;;;;;;;;;;;;;;;;5065964;28;19977;-79
2022/11/30 02:54:09;;;;;;;;;;;;;;;;;;5054993;28;19912;-79
2022/11/30 02:56:35;;;;;;;;;;;;;;;;;;5053128;28;19947;-79
2022/11/30 02:59:00;;;;;;;;;;;;;;;;;;5062011;28;19912;-79
2022/11/30 03:01:26;;;;;;;;;;;;;;;;;;5063655;28;19918;-79
2022/11/30 03:03:52;;;;;;;;;;;;;;;;;;5060403;28;20358;-80
2022/11/30 03:06:18;;;;;;;;;;;;;;;;;;5062968;28;19951;-79
2022/11/30 03:08:44;;;;;;;;;;;;;;;;;;5067206;28;19916;-79
2022/11/30 03:11:10;;;;;;;;;;;;;;;;;;5063142;28;19965;-80
2022/11/30 03:13:35;;;;;;;;;;;;;;;;;;5065130;28;19995;-79
2022/11/30 03:16:01;;;;;;;;;;;;;;;;;;5059217;28;19913;-79
2022/11/30 03:18:27;;;;;;;;;;;;;;;;;;5064159;28;19986;-79
2022/11/30 03:20:53;;;;;;;;;;;;;;;;;;5055305;28;19913;-78
2022/11/30 03:23:19;;;;;;;;;;;;;;;;;;5062589;28;20387;-77
2022/11/30 03:25:45;;;;;;;;;;;;;;;;;;5063367;28;20328;-79
2022/11/30 03:28:11;;;;;;;;;;;;;;;;;;5065854;28;19912;-79
2022/11/30 03:30:36;;;;;;;;;;;;;;;;;;5064543;28;20374;-78
2022/11/30 03:33:02;;;;;;;;;;;;;;;;;;5060500;28;19912;-78
2022/11/30 03:35:28;;;;;;;;;;;;;;;;;;5061624;28;19908;-78
2022/11/30 03:37:54;;;;;;;;;;;;;;;;;;5063904;28;19974;-78
2022/11/30 03:40:20;;;;;;;;;;;;;;;;;;5049626;28;19913;-78
2022/11/30 03:42:46;;;;;;;;;;;;;;;;;;5063431;28;19916;-78
2022/11/30 03:45:11;;;;;;;;;;;;;;;;;;5063256;28;20303;-78
2022/11/30 03:47:37;;;;;;;;;;;;;;;;;;5067034;28;20547;-78
2022/11/30 03:50:03;;;;;;;;;;;;;;;;;;5067687;28;20003;-79
2022/11/30 03:52:29;;;;;;;;;;;;;;;;;;5063095;28;20017;-79
2022/11/30 03:54:55;;;;;;;;;;;;;;;;;;5062424;28;19917;-79
2022/11/30 03:57:20;;;;;;;;;;;;;;;;;;5063012;28;19912;-78
2022/11/30 03:59:46;;;;;;;;;;;;;;;;;;5060644;28;20012;-78
2022/11/30 04:02:12;;;;;;;;;;;;;;;;;;5065363;28;19942;-78
2022/11/30 04:04:38;;;;;;;;;;;;;;;;;;5061319;28;19915;-78
2022/11/30 04:07:10;;;;;;;;;;;;;;;;;;5061295;28;19908;-78
2022/11/30 04:09:36;;;;;;;;;;;;;;;;;;5064161;28;19908;-78
2022/11/30 04:12:02;;;;;;;;;;;;;;;;;;5064900;28;19962;-78
2022/11/30 04:14:27;;;;;;;;;;;;;;;;;;5066060;28;19912;-78
2022/11/30 04:16:53;;;;;;;;;;;;;;;;;;5065598;28;19930;-78
2022/11/30 04:19:19;;;;;;;;;;;;;;;;;;5063009;28;19924;-77
2022/11/30 04:21:45;;;;;;;;;;;;;;;;;;5062921;28;19909;-77
2022/11/30 04:24:11;;;;;;;;;;;;;;;;;;5064433;28;19912;-77
2022/11/30 04:26:37;;;;;;;;;;;;;;;;;;5061922;28;19938;-78
2022/11/30 04:29:04;;;;;;;;;;;;;;;;;;5062236;28;19955;-77
2022/11/30 04:31:29;;;;;;;;;;;;;;;;;;5062309;28;20003;-77
2022/11/30 04:33:55;;;;;;;;;;;;;;;;;;5064819;28;19999;-78
2022/11/30 04:36:21;;;;;;;;;;;;;;;;;;5062714;28;19908;-78
2022/11/30 04:38:47;;;;;;;;;;;;;;;;;;5062723;28;19974;-78
2022/11/30 04:41:13;;;;;;;;;;;;;;;;;;5069136;28;19908;-78
2022/11/30 04:43:39;;;;;;;;;;;;;;;;;;5060792;28;19909;-78
2022/11/30 04:46:05;;;;;;;;;;;;;;;;;;5068679;28;19912;-79
2022/11/30 04:48:31;;;;;;;;;;;;;;;;;;5060509;28;19955;-78
2022/11/30 04:50:56;;;;;;;;;;;;;;;;;;5059262;28;19969;-79
2022/11/30 04:53:22;;;;;;;;;;;;;;;;;;5075053;28;19919;-80
2022/11/30 04:55:48;;;;;;;;;;;;;;;;;;5068583;28;19995;-79
2022/11/30 04:58:14;;;;;;;;;;;;;;;;;;5068719;28;19920;-79
2022/11/30 05:00:40;;;;;;;;;;;;;;;;;;5059363;28;19916;-78
2022/11/30 05:03:06;;;;;;;;;;;;;;;;;;5057408;28;19913;-79
2022/11/30 05:05:31;;;;;;;;;;;;;;;;;;5062154;28;19958;-78
2022/11/30 05:07:57;;;;;;;;;;;;;;;;;;5067401;28;20367;-78
2022/11/30 05:10:23;;;;;;;;;;;;;;;;;;5064258;28;19923;-78
2022/11/30 05:12:49;;;;;;;;;;;;;;;;;;5062569;28;20001;-78
2022/11/30 05:15:15;;;;;;;;;;;;;;;;;;5059952;28;19909;-78
2022/11/30 05:17:41;;;;;;;;;;;;;;;;;;5061263;28;20347;-78
2022/11/30 05:20:06;;;;;;;;;;;;;;;;;;5057738;28;20294;-77
2022/11/30 05:22:35;;;;;;;;;;;;;;;;;;5064801;28;19998;-75
2022/11/30 05:25:01;;;;;;;;;;;;;;;;;;5065920;28;19960;-76
2022/11/30 05:27:27;;;;;;;;;;;;;;;;;;5071070;28;19935;-77
2022/11/30 05:29:53;;;;;;;;;;;;;;;;;;5058193;28;19919;-75
2022/11/30 05:32:19;;;;;;;;;;;;;;;;;;5069271;28;20230;-77
2022/11/30 05:34:45;;;;;;;;;;;;;;;;;;5062226;28;19916;-83
2022/11/30 05:37:10;;;;;;;;;;;;;;;;;;5062820;28;19924;-83
2022/11/30 05:39:36;;;;;;;;;;;;;;;;;;5069166;28;20475;-83
2022/11/30 05:42:02;;;;;;;;;;;;;;;;;;5061755;28;20341;-84
2022/11/30 05:44:28;;;;;;;;;;;;;;;;;;5059022;28;20003;-85
2022/11/30 05:46:54;;;;;;;;;;;;;;;;;;5062536;28;19908;-85
2022/11/30 05:49:20;;;;;;;;;;;;;;;;;;5067688;28;19920;-86
2022/11/30 05:51:46;;;;;;;;;;;;;;;;;;5063247;28;19909;-85
2022/11/30 05:54:12;;;;;;;;;;;;;;;;;;5068401;28;19910;-85
2022/11/30 05:56:38;;;;;;;;;;;;;;;;;;5062486;28;19955;-87
2022/11/30 05:59:03;;;;;;;;;;;;;;;;;;5064816;28;19955;-86
2022/11/30 06:01:29;;;;;;;;;;;;;;;;;;5064439;28;19977;-77
2022/11/30 06:03:55;;;;;;;;;;;;;;;;;;5063312;28;19952;-79
2022/11/30 06:06:21;;;;;;;;;;;;;;;;;;5065935;28;19950;-79
2022/11/30 06:08:47;;;;;;;;;;;;;;;;;;5065852;28;19908;-75
2022/11/30 06:11:13;;;;;;;;;;;;;;;;;;5066360;28;19993;-76
2022/11/30 06:13:39;;;;;;;;;;;;;;;;;;5055726;28;20445;-77
2022/11/30 06:16:04;;;;;;;;;;;;;;;;;;5057143;28;20355;-77
2022/11/30 06:18:30;;;;;;;;;;;;;;;;;;5063652;28;19978;-77
2022/11/30 06:20:56;;;;;;;;;;;;;;;;;;5064601;28;20414;-77
2022/11/30 06:23:22;;;;;;;;;;;;;;;;;;5063576;28;20039;-76
2022/11/30 06:25:48;;;;;;;;;;;;;;;;;;5064531;28;20302;-77
2022/11/30 06:28:14;;;;;;;;;;;;;;;;;;5065778;28;19969;-77
2022/11/30 06:30:40;;;;;;;;;;;;;;;;;;5063206;28;19923;-76
2022/11/30 06:33:05;;;;;;;;;;;;;;;;;;5055281;28;19908;-77
2022/11/30 06:35:31;;;;;;;;;;;;;;;;;;5058819;28;19928;-77
2022/11/30 06:37:59;;;;;;;;;;;;;;;;;;5055678;28;19955;-76
2022/11/30 06:40:25;;;;;;;;;;;;;;;;;;5058467;28;20330;-76
2022/11/30 06:42:51;;;;;;;;;;;;;;;;;;5057143;28;19939;-77
2022/11/30 06:45:17;;;;;;;;;;;;;;;;;;5056739;28;19961;-76
2022/11/30 06:47:42;;;;;;;;;;;;;;;;;;5052406;28;20271;-76
2022/11/30 06:50:08;;;;;;;;;;;;;;;;;;5054361;28;19931;-76
2022/11/30 06:52:34;;;;;;;;;;;;;;;;;;5055535;28;19916;-76
2022/11/30 06:55:00;;;;;;;;;;;;;;;;;;5055918;28;19908;-76
2022/11/30 06:57:26;;;;;;;;;;;;;;;;;;5056140;28;20003;-76
2022/11/30 06:59:52;;;;;;;;;;;;;;;;;;5062297;28;19912;-76
2022/11/30 07:02:18;;;;;;;;;;;;;;;;;;5055586;28;19908;-76
2022/11/30 07:04:44;;;;;;;;;;;;;;;;;;5055163;28;19961;-76
2022/11/30 07:07:10;;;;;;;;;;;;;;;;;;5058264;28;19908;-76
2022/11/30 07:09:35;;;;;;;;;;;;;;;;;;5047224;28;19913;-76
2022/11/30 07:12:01;;;;;;;;;;;;;;;;;;5053625;28;20003;-77
2022/11/30 07:14:28;;;;;;;;;;;;;;;;;;5053128;28;20351;-77
2022/11/30 07:16:54;;;;;;;;;;;;;;;;;;5053431;28;20402;-76
2022/11/30 07:19:20;;;;;;;;;;;;;;;;;;5060828;28;19920;-77
2022/11/30 07:21:46;;;;;;;;;;;;;;;;;;5059491;28;20050;-76
2022/11/30 07:26:56;;;;;;;;;;;;;;;;;;5056058;28;19915;-77
2022/11/30 07:29:22;;;;;;;;;;;;;;;;;;5054494;28;19916;-77
2022/11/30 07:31:48;;;;;;;;;;;;;;;;;;5065718;28;19916;-77
2022/11/30 07:34:13;;;;;;;;;;;;;;;;;;5061949;28;19916;-77
2022/11/30 07:36:39;;;;;;;;;;;;;;;;;;5068577;28;20730;-77
2022/11/30 07:39:05;;;;;;;;;;;;;;;;;;5066087;28;19922;-77
2022/11/30 07:41:31;;;;;;;;;;;;;;;;;;5068545;28;19912;-77
2022/11/30 07:43:57;;;;;;;;;;;;;;;;;;5068559;28;19912;-77
2022/11/30 07:46:24;;;;;;;;;;;;;;;;;;5066556;28;19959;-77
2022/11/30 07:48:50;;;;;;;;;;;;;;;;;;5063896;28;19947;-77
2022/11/30 07:51:15;;;;;;;;;;;;;;;;;;5065701;28;19912;-78
2022/11/30 07:53:41;;;;;;;;;;;;;;;;;;5059774;28;20374;-77
2022/11/30 07:56:07;;;;;;;;;;;;;;;;;;5068843;28;19909;-77
2022/11/30 07:58:33;;;;;;;;;;;;;;;;;;5065561;28;19916;-74
2022/11/30 08:00:59;;;;;;;;;;;;;;;;;;5070470;28;20279;-75
2022/11/30 08:03:25;;;;;;;;;;;;;;;;;;5065875;28;19947;-75
2022/11/30 08:05:50;;;;;;;;;;;;;;;;;;5063717;28;19935;-75
2022/11/30 08:08:16;;;;;;;;;;;;;;;;;;5060021;28;19908;-79
2022/11/30 08:10:42;;;;;;;;;;;;;;;;;;5059444;28;20114;-81
2022/11/30 08:13:08;;;;;;;;;;;;;;;;;;5064964;28;19915;-81
2022/11/30 08:15:34;;;;;;;;;;;;;;;;;;5059675;28;19911;-83
2022/11/30 08:18:04;;;;;;;;;;;;;;;;;;5064311;28;20375;-81
2022/11/30 08:20:30;;;;;;;;;;;;;;;;;;5070435;28;20359;-76
2022/11/30 08:22:55;;;;;;;;;;;;;;;;;;5065732;28;19912;-79
2022/11/30 08:25:21;;;;;;;;;;;;;;;;;;5068635;28;19908;-81
2022/11/30 08:27:47;;;;;;;;;;;;;;;;;;5069164;28;20416;-85
2022/11/30 08:30:13;;;;;;;;;;;;;;;;;;5069363;28;19909;-90
2022/11/30 08:32:39;;;;;;;;;;;;;;;;;;5070591;28;19935;-83
2022/11/30 08:35:05;;;;;;;;;;;;;;;;;;5068696;28;19947;-81
2022/11/30 08:37:31;;;;;;;;;;;;;;;;;;5070658;28;19905;-82
2022/11/30 08:39:56;;;;;;;;;;;;;;;;;;5062414;28;19912;-81
2022/11/30 08:42:22;;;;;;;;;;;;;;;;;;5069829;28;20370;-80
2022/11/30 08:44:48;;;;;;;;;;;;;;;;;;5068238;28;19952;-80
2022/11/30 08:47:14;;;;;;;;;;;;;;;;;;5067634;28;19931;-81
2022/11/30 08:49:43;;;;;;;;;;;;;;;;;;5066003;28;19970;-81
2022/11/30 08:52:09;;;;;;;;;;;;;;;;;;5068908;28;19961;-81
2022/11/30 08:54:35;;;;;;;;;;;;;;;;;;5067801;28;19908;-81
2022/11/30 08:57:01;;;;;;;;;;;;;;;;;;5060120;28;19909;-81
2022/11/30 08:59:27;;;;;;;;;;;;;;;;;;5062645;28;20550;-80
2022/11/30 09:01:52;;;;;;;;;;;;;;;;;;5065789;28;20245;-80
2022/11/30 09:04:18;;;;;;;;;;;;;;;;;;5069990;28;19904;-81
2022/11/30 09:06:44;;;;;;;;;;;;;;;;;;5066758;28;19913;-81
2022/11/30 09:09:10;;;;;;;;;;;;;;;;;;5068440;28;19916;-82
2022/11/30 09:11:36;;;;;;;;;;;;;;;;;;5068448;28;19915;-81
2022/11/30 09:14:03;;;;;;;;;;;;;;;;;;5068478;28;19954;-81
2022/11/30 09:16:29;;;;;;;;;;;;;;;;;;5068908;28;20564;-81
2022/11/30 09:18:55;;;;;;;;;;;;;;;;;;5064254;28;19948;-80
2022/11/30 09:21:20;;;;;;;;;;;;;;;;;;5063474;28;20366;-79
2022/11/30 09:23:46;;;;;;;;;;;;;;;;;;5069038;28;19926;-79
2022/11/30 09:26:12;;;;;;;;;;;;;;;;;;5067919;28;19909;-80
2022/11/30 09:28:38;;;;;;;;;;;;;;;;;;5060776;28;19908;-80
2022/11/30 09:31:04;;;;;;;;;;;;;;;;;;5066513;28;19908;-79
2022/11/30 09:33:30;;;;;;;;;;;;;;;;;;5062096;28;19912;-79
2022/11/30 09:35:56;;;;;;;;;;;;;;;;;;5069389;28;19966;-80
2022/11/30 09:38:22;;;;;;;;;;;;;;;;;;5067717;28;19958;-82
2022/11/30 09:40:48;;;;;;;;;;;;;;;;;;5064739;28;20764;-79
2022/11/30 09:43:14;;;;;;;;;;;;;;;;;;5064335;28;20019;-80
2022/11/30 09:45:41;;;;;;;;;;;;;;;;;;5059615;28;19916;-80
2022/11/30 09:48:07;;;;;;;;;;;;;;;;;;5067803;28;19908;-81
2022/11/30 09:50:32;;;;;;;;;;;;;;;;;;5067788;28;19917;-80
2022/11/30 09:52:58;;;;;;;;;;;;;;;;;;5061560;28;19969;-80
2022/11/30 09:55:24;;;;;;;;;;;;;;;;;;5063131;28;19947;-80
2022/11/30 09:57:51;;;;;;;;;;;;;;;;;;5065328;28;19916;-80
2022/11/30 10:00:17;;;;;;;;;;;;;;;;;;5062854;28;19912;-81
2022/11/30 10:02:43;;;;;;;;;;;;;;;;;;5049611;28;20453;-81
2022/11/30 10:05:09;;;;;;;;;;;;;;;;;;5051779;28;20144;-81
2022/11/30 10:07:35;;;;;;;;;;;;;;;;;;5064764;28;19904;-81
2022/11/30 10:10:01;;;;;;;;;;;;;;;;;;5065938;28;20388;-80
2022/11/30 10:12:27;;;;;;;;;;;;;;;;;;5068075;28;20011;-81
2022/11/30 10:14:53;;;;;;;;;;;;;;;;;;5061410;28;19912;-81
2022/11/30 10:17:18;;;;;;;;;;;;;;;;;;5059492;28;19983;-77
2022/11/30 10:19:44;;;;;;;;;;;;;;;;;;5067044;28;19913;-78
2022/11/30 10:22:10;;;;;;;;;;;;;;;;;;5061112;28;19916;-79
2022/11/30 10:24:36;;;;;;;;;;;;;;;;;;5064844;28;19915;-79
2022/11/30 10:27:02;;;;;;;;;;;;;;;;;;5061619;28;19908;-79
2022/11/30 10:29:28;;;;;;;;;;;;;;;;;;5062022;28;19916;-79
2022/11/30 10:31:53;;;;;;;;;;;;;;;;;;5068406;28;19904;-79
2022/11/30 10:34:20;;;;;;;;;;;;;;;;;;5068080;28;19940;-80
2022/11/30 10:36:45;;;;;;;;;;;;;;;;;;5067671;28;19961;-80
2022/11/30 10:39:11;;;;;;;;;;;;;;;;;;5061296;28;19912;-80
2022/11/30 10:41:37;;;;;;;;;;;;;;;;;;5067490;28;19915;-80
2022/11/30 10:44:03;;;;;;;;;;;;;;;;;;5068183;28;20370;-79
2022/11/30 10:46:29;;;;;;;;;;;;;;;;;;5068198;28;19912;-80
2022/11/30 10:48:55;;;;;;;;;;;;;;;;;;5060345;28;19909;-79
2022/11/30 10:51:21;;;;;;;;;;;;;;;;;;5069248;28;20411;-80
2022/11/30 10:53:47;;;;;;;;;;;;;;;;;;5071775;28;19952;-80
2022/11/30 10:56:12;;;;;;;;;;;;;;;;;;5071766;28;19919;-79
2022/11/30 10:58:38;;;;;;;;;;;;;;;;;;5064547;28;20977;-80
2022/11/30 11:01:04;;;;;;;;;;;;;;;;;;5065289;28;19915;-79
2022/11/30 11:03:30;;;;;;;;;;;;;;;;;;5072283;28;19953;-79
2022/11/30 11:05:56;;;;;;;;;;;;;;;;;;5061705;28;19912;-80
2022/11/30 11:08:22;;;;;;;;;;;;;;;;;;5065416;28;19913;-80
2022/11/30 11:10:50;;;;;;;;;;;;;;;;;;5058265;28;19908;-79
2022/11/30 11:13:16;;;;;;;;;;;;;;;;;;5068836;28;20467;-81
2022/11/30 11:15:42;;;;;;;;;;;;;;;;;;5069815;28;20018;-80
2022/11/30 11:18:08;;;;;;;;;;;;;;;;;;5067338;28;19912;-80
2022/11/30 11:20:34;;;;;;;;;;;;;;;;;;5071466;28;19912;-80
2022/11/30 11:23:00;;;;;;;;;;;;;;;;;;5066860;28;20487;-80
2022/11/30 11:25:29;;;;;;;;;;;;;;;;;;5068200;28;19951;-80
2022/11/30 11:27:54;;;;;;;;;;;;;;;;;;5069167;28;20601;-80
2022/11/30 11:30:20;;;;;;;;;;;;;;;;;;5068117;28;19948;-80
2022/11/30 11:32:46;;;;;;;;;;;;;;;;;;5071256;28;20355;-80
2022/11/30 11:35:12;;;;;;;;;;;;;;;;;;5065130;28;20392;-80
2022/11/30 11:37:40;;;;;;;;;;;;;;;;;;5066982;28;20226;-80
2022/11/30 11:40:06;;;;;;;;;;;;;;;;;;5064635;28;19978;-80
2022/11/30 11:42:32;;;;;;;;;;;;;;;;;;5070901;28;19908;-80
2022/11/30 11:44:58;;;;;;;;;;;;;;;;;;5070969;28;19911;-81
2022/11/30 11:47:24;;;;;;;;;;;;;;;;;;5067904;28;20003;-80
2022/11/30 11:49:50;;;;;;;;;;;;;;;;;;5070179;28;19929;-80
2022/11/30 11:52:16;;;;;;;;;;;;;;;;;;5070549;28;19914;-79
2022/11/30 11:54:42;;;;;;;;;;;;;;;;;;5070836;28;20027;-79
2022/11/30 11:57:08;;;;;;;;;;;;;;;;;;5069181;28;20008;-80
2022/11/30 11:59:37;;;;;;;;;;;;;;;;;;5063957;28;19912;-81
2022/11/30 12:02:03;;;;;;;;;;;;;;;;;;5069780;28;19936;-80
2022/11/30 12:04:29;;;;;;;;;;;;;;;;;;5069693;28;20585;-81
2022/11/30 12:06:55;;;;;;;;;;;;;;;;;;5068383;28;19904;-81
2022/11/30 12:09:21;;;;;;;;;;;;;;;;;;5060330;28;19908;-80
2022/11/30 12:11:47;;;;;;;;;;;;;;;;;;5069486;28;19939;-80
2022/11/30 12:14:13;;;;;;;;;;;;;;;;;;5069969;28;20363;-79
2022/11/30 12:16:38;;;;;;;;;;;;;;;;;;5069268;28;20283;-80
2022/11/30 12:19:04;;;;;;;;;;;;;;;;;;5067988;28;19916;-80
2022/11/30 12:21:30;;;;;;;;;;;;;;;;;;5059397;28;19939;-79
2022/11/30 12:23:56;;;;;;;;;;;;;;;;;;5070413;28;19908;-79
2022/11/30 12:26:22;;;;;;;;;;;;;;;;;;5070204;28;20607;-81
2022/11/30 12:28:48;;;;;;;;;;;;;;;;;;5067894;28;20785;-80
2022/11/30 12:31:14;;;;;;;;;;;;;;;;;;5064302;28;20291;-81
2022/11/30 12:33:39;;;;;;;;;;;;;;;;;;5065485;28;20007;-80
2022/11/30 12:36:05;;;;;;;;;;;;;;;;;;5067438;28;20476;-81
2022/11/30 12:38:31;;;;;;;;;;;;;;;;;;5067885;28;20371;-79
2022/11/30 12:40:57;;;;;;;;;;;;;;;;;;5068014;28;19994;-81
2022/11/30 12:43:23;;;;;;;;;;;;;;;;;;5063819;28;19939;-81
2022/11/30 12:45:49;;;;;;;;;;;;;;;;;;5067524;28;19908;-81
2022/11/30 12:48:14;;;;;;;;;;;;;;;;;;5070211;28;19904;-81
2022/11/30 12:50:40;;;;;;;;;;;;;;;;;;5067684;28;19981;-80
2022/11/30 12:53:06;;;;;;;;;;;;;;;;;;5067585;28;20374;-80
2022/11/30 12:55:32;;;;;;;;;;;;;;;;;;5065339;28;19948;-83
2022/11/30 12:57:58;;;;;;;;;;;;;;;;;;5067703;28;19912;-81
2022/11/30 13:00:24;;;;;;;;;;;;;;;;;;5069385;28;20318;-81
2022/11/30 13:02:50;;;;;;;;;;;;;;;;;;5069817;28;19999;-81
2022/11/30 13:05:15;;;;;;;;;;;;;;;;;;5068522;28;19912;-82
2022/11/30 13:07:41;;;;;;;;;;;;;;;;;;5062212;28;20247;-82
2022/11/30 13:10:07;;;;;;;;;;;;;;;;;;5069845;28;19908;-81
2022/11/30 13:12:34;;;;;;;;;;;;;;;;;;5069493;28;19906;-81
2022/11/30 13:15:00;;;;;;;;;;;;;;;;;;5066990;28;19966;-82
2022/11/30 13:17:26;;;;;;;;;;;;;;;;;;5058649;28;19952;-82
2022/11/30 13:19:53;;;;;;;;;;;;;;;;;;5068312;28;20350;-82
2022/11/30 13:22:19;;;;;;;;;;;;;;;;;;5069257;28;19904;-82
2022/11/30 13:24:47;;;;;;;;;;;;;;;;;;5068923;28;20318;-81
2022/11/30 13:27:13;;;;;;;;;;;;;;;;;;5066552;28;19904;-82
2022/11/30 13:29:39;;;;;;;;;;;;;;;;;;5060972;28;20014;-82
2022/11/30 13:32:05;;;;;;;;;;;;;;;;;;5067421;28;19940;-81
2022/11/30 13:34:31;;;;;;;;;;;;;;;;;;5068907;28;20322;-82
2022/11/30 13:40:00;;;;;;;;;;;;;;;;;;5063364;28;19920;-81
2022/11/30 13:42:35;;;;;;;;;;;;;;;;;;5062268;28;19950;-81
2022/11/30 13:45:01;;;;;;;;;;;;;;;;;;5068626;28;19908;-82
2022/11/30 13:47:27;;;;;;;;;;;;;;;;;;5067651;28;19915;-82
2022/11/30 13:49:55;;;;;;;;;;;;;;;;;;5067530;28;19916;-82
2022/11/30 13:52:21;;;;;;;;;;;;;;;;;;5058329;28;19910;-82
2022/11/30 13:54:47;;;;;;;;;;;;;;;;;;5067183;28;19912;-80
2022/11/30 13:57:12;;;;;;;;;;;;;;;;;;5066411;28;20094;-82
2022/11/30 13:59:40;;;;;;;;;;;;;;;;;;5059044;28;19962;-82
2022/11/30 14:02:05;;;;;;;;;;;;;;;;;;5068207;28;19911;-81
2022/11/30 14:04:31;;;;;;;;;;;;;;;;;;5068449;28;20119;-80
2022/11/30 14:06:59;;;;;;;;;;;;;;;;;;5066128;28;19913;-80
2022/11/30 14:09:25;;;;;;;;;;;;;;;;;;5063234;28;19908;-81
2022/11/30 14:11:51;;;;;;;;;;;;;;;;;;5067423;28;19908;-81
2022/11/30 14:14:17;;;;;;;;;;;;;;;;;;5061313;28;19940;-81
2022/11/30 14:16:42;;;;;;;;;;;;;;;;;;5068012;28;19962;-80
2022/11/30 14:19:08;;;;;;;;;;;;;;;;;;5062621;28;19912;-82
2022/11/30 14:21:35;;;;;;;;;;;;;;;;;;5063331;28;20690;-81
2022/11/30 14:24:01;;;;;;;;;;;;;;;;;;5064400;28;19947;-81
2022/11/30 14:26:27;;;;;;;;;;;;;;;;;;5066281;28;19908;-82
2022/11/30 14:28:53;;;;;;;;;;;;;;;;;;5066383;28;19986;-81
2022/11/30 14:31:19;;;;;;;;;;;;;;;;;;5067541;28;19909;-81
2022/11/30 14:33:44;;;;;;;;;;;;;;;;;;5067812;28;19905;-82
2022/11/30 14:36:11;;;;;;;;;;;;;;;;;;5065706;28;20382;-81
2022/11/30 14:38:36;;;;;;;;;;;;;;;;;;5068233;28;19931;-81
2022/11/30 14:41:02;;;;;;;;;;;;;;;;;;5063368;28;19912;-83
2022/11/30 14:43:28;;;;;;;;;;;;;;;;;;5058315;28;20501;-80
2022/11/30 14:45:54;;;;;;;;;;;;;;;;;;5067951;28;19989;-79
2022/11/30 14:48:21;;;;;;;;;;;;;;;;;;5058041;28;19956;-78
2022/11/30 14:50:46;;;;;;;;;;;;;;;;;;5060583;28;19969;-80
2022/11/30 14:53:12;;;;;;;;;;;;;;;;;;5071425;28;20422;-80
2022/11/30 14:55:38;;;;;;;;;;;;;;;;;;5073078;28;19916;-81
2022/11/30 14:58:04;;;;;;;;;;;;;;;;;;5068260;28;19923;-81
2022/11/30 15:00:30;;;;;;;;;;;;;;;;;;5071982;28;20010;-80
2022/11/30 15:02:56;;;;;;;;;;;;;;;;;;5069020;28;20318;-81
2022/11/30 15:05:22;;;;;;;;;;;;;;;;;;5057597;28;19915;-80
2022/11/30 15:07:47;;;;;;;;;;;;;;;;;;5062511;28;19917;-81
2022/11/30 15:10:13;;;;;;;;;;;;;;;;;;5063010;28;19916;-81
2022/11/30 15:12:39;;;;;;;;;;;;;;;;;;5066378;28;20021;-81
2022/11/30 15:15:05;;;;;;;;;;;;;;;;;;5061183;28;19958;-81
2022/11/30 15:17:31;;;;;;;;;;;;;;;;;;5059340;28;19912;-81
2022/11/30 15:19:57;;;;;;;;;;;;;;;;;;5061146;28;19916;-81
2022/11/30 15:22:22;;;;;;;;;;;;;;;;;;5065664;28;19912;-84
2022/11/30 15:24:48;;;;;;;;;;;;;;;;;;5059068;28;19916;-85
2022/11/30 15:27:14;;;;;;;;;;;;;;;;;;5063486;28;20274;-79
2022/11/30 15:29:40;;;;;;;;;;;;;;;;;;5064386;28;19919;-77
2022/11/30 15:32:06;;;;;;;;;;;;;;;;;;5061249;28;19995;-76
2022/11/30 15:34:32;;;;;;;;;;;;;;;;;;5062709;28;19908;-81
2022/11/30 15:36:58;;;;;;;;;;;;;;;;;;5059004;28;19965;-78
2022/11/30 15:39:23;;;;;;;;;;;;;;;;;;5069117;28;19920;-88
2022/11/30 15:41:49;;;;;;;;;;;;;;;;;;5069152;28;19918;-82
2022/11/30 15:44:15;;;;;;;;;;;;;;;;;;5064391;28;19948;-78
2022/11/30 15:46:41;;;;;;;;;;;;;;;;;;5057416;28;19908;-79
2022/11/30 15:49:07;;;;;;;;;;;;;;;;;;5060828;28;20002;-76
2022/11/30 15:51:33;;;;;;;;;;;;;;;;;;5065659;28;20521;-77
2022/11/30 15:53:58;;;;;;;;;;;;;;;;;;5059779;28;19912;-79
2022/11/30 15:56:24;;;;;;;;;;;;;;;;;;5074710;28;19915;-80
2022/11/30 15:58:50;;;;;;;;;;;;;;;;;;5071092;28;19920;-80
2022/11/30 16:01:18;;;;;;;;;;;;;;;;;;5063242;28;19958;-77
2022/11/30 16:03:43;;;;;;;;;;;;;;;;;;5053115;28;19912;-81
2022/11/30 16:06:09;;;;;;;;;;;;;;;;;;5064265;28;19908;-80
2022/11/30 16:08:35;;;;;;;;;;;;;;;;;;5070694;28;19916;-92
2022/11/30 16:11:01;;;;;;;;;;;;;;;;;;5073192;28;19995;-80
2022/11/30 16:13:28;;;;;;;;;;;;;;;;;;5080257;28;19908;-82
2022/11/30 16:15:54;;;;;;;;;;;;;;;;;;5069210;28;19923;-82
2022/11/30 16:18:21;;;;;;;;;;;;;;;;;;5074093;28;19915;-82
2022/11/30 16:20:46;;;;;;;;;;;;;;;;;;5064901;28;21348;-82
2022/11/30 16:23:14;;;;;;;;;;;;;;;;;;5062863;28;19940;-79
2022/11/30 16:25:40;;;;;;;;;;;;;;;;;;5066185;28;19909;-78
2022/11/30 16:28:06;;;;;;;;;;;;;;;;;;5064105;28;19912;-78
2022/11/30 16:30:32;;;;;;;;;;;;;;;;;;5066502;28;19912;-80
2022/11/30 16:32:58;;;;;;;;;;;;;;;;;;5064123;28;19936;-79
2022/11/30 16:35:23;;;;;;;;;;;;;;;;;;5056544;28;19904;-80
2022/11/30 16:37:49;;;;;;;;;;;;;;;;;;5063411;28;20363;-78
2022/11/30 16:40:15;;;;;;;;;;;;;;;;;;5061968;28;20627;-77
2022/11/30 16:42:41;;;;;;;;;;;;;;;;;;5053531;28;20379;-78